createdAt,value
2022-12-23T00:01:29.341Z,14.53
2022-12-23T00:03:59.500Z,14.07
2022-12-23T00:06:28.033Z,16.27
2022-12-23T00:08:59.016Z,15.83
2022-12-23T00:11:29.633Z,15.83
2022-12-23T00:14:21.219Z,16.13
2022-12-23T00:16:50.627Z,14.97
2022-12-23T00:19:18.980Z,15.10
2022-12-23T00:21:48.543Z,14.73
2022-12-23T00:24:16.555Z,14.10
2022-12-23T00:26:46.040Z,13.83
2022-12-23T00:29:14.125Z,13.47
2022-12-23T00:31:42.265Z,13.43
2022-12-23T00:34:11.886Z,13.63
2022-12-23T00:36:40.890Z,14.03
2022-12-23T00:39:30.193Z,14.30
2022-12-23T00:42:16.876Z,14.47
2022-12-23T00:44:45.164Z,14.10
2022-12-23T00:47:33.210Z,13.30
2022-12-23T00:50:00.256Z,12.33
2022-12-23T00:52:28.367Z,12.73
2022-12-23T00:54:56.741Z,13.00
2022-12-23T00:57:26.203Z,13.23
2022-12-23T00:59:54.363Z,13.43
2022-12-23T01:02:39.540Z,13.63
2022-12-23T01:05:25.805Z,12.83
2022-12-23T01:07:56.143Z,13.17
2022-12-23T01:10:24.302Z,12.87
2022-12-23T01:12:53.640Z,12.10
2022-12-23T01:15:21.670Z,12.37
2022-12-23T01:17:49.713Z,12.33
2022-12-23T01:20:17.929Z,12.73
2022-12-23T01:22:45.961Z,11.53
2022-12-23T01:25:14.277Z,12.10
2022-12-23T01:27:42.354Z,11.93
2022-12-23T01:30:12.465Z,11.93
2022-12-23T01:32:40.528Z,12.53
2022-12-23T01:35:09.155Z,11.10
2022-12-23T01:37:37.733Z,12.70
2022-12-23T01:40:06.828Z,11.37
2022-12-23T01:42:47.513Z,11.53
2022-12-23T01:45:19.671Z,11.73
2022-12-23T01:47:53.050Z,11.37
2022-12-23T01:50:26.638Z,11.97
2022-12-23T01:53:07.368Z,11.23
2022-12-23T01:55:41.732Z,10.80
2022-12-23T01:58:14.690Z,10.37
2022-12-23T02:01:01.594Z,10.40
2022-12-23T02:03:45.706Z,8.93
2022-12-23T02:06:39.281Z,8.90
2022-12-23T02:09:19.774Z,9.53
2022-12-23T02:12:21.555Z,8.77
2022-12-23T02:15:25.782Z,8.83
2022-12-23T02:18:06.544Z,8.80
2022-12-23T02:21:03.001Z,9.13
2022-12-23T02:23:48.895Z,9.03
2022-12-23T02:26:46.692Z,9.83
2022-12-23T02:29:36.984Z,9.30
2022-12-23T02:32:12.270Z,9.17
2022-12-23T02:34:46.848Z,8.30
2022-12-23T02:37:21.719Z,7.10
2022-12-23T02:39:56.246Z,8.30
2022-12-23T02:42:30.296Z,8.03
2022-12-23T02:45:04.509Z,7.83
2022-12-23T02:47:39.038Z,6.93
2022-12-23T02:50:12.717Z,7.90
2022-12-23T02:52:45.200Z,7.20
2022-12-23T02:55:17.394Z,7.10
2022-12-23T02:57:49.414Z,7.70
2022-12-23T03:00:18.996Z,7.93
2022-12-23T03:02:49.316Z,7.43
2022-12-23T03:05:30.784Z,8.17
2022-12-23T03:08:04.091Z,7.23
2022-12-23T03:10:45.173Z,7.23
2022-12-23T03:13:26.340Z,7.37
2022-12-23T03:16:01.928Z,7.07
2022-12-23T03:18:42.210Z,6.47
2022-12-23T03:21:15.800Z,6.40
2022-12-23T03:23:55.547Z,6.97
2022-12-23T03:26:31.270Z,6.87
2022-12-23T03:29:07.091Z,6.70
2022-12-23T03:31:37.006Z,6.50
2022-12-23T03:34:12.286Z,6.23
2022-12-23T03:36:46.016Z,6.90
2022-12-23T03:39:18.505Z,6.37
2022-12-23T03:41:52.686Z,7.07
2022-12-23T03:44:27.301Z,6.27
2022-12-23T03:47:02.863Z,6.70
2022-12-23T03:49:36.967Z,6.33
2022-12-23T03:52:14.522Z,6.07
2022-12-23T03:54:52.844Z,6.57
2022-12-23T03:57:23.123Z,6.00
2022-12-23T03:59:51.971Z,5.87
2022-12-23T04:02:26.338Z,6.03
2022-12-23T04:05:15.196Z,5.83
2022-12-23T04:07:47.508Z,5.80
2022-12-23T04:10:19.086Z,5.97
2022-12-23T04:12:47.315Z,5.93
2022-12-23T04:15:21.138Z,5.73
2022-12-23T04:17:49.886Z,5.80
2022-12-23T04:20:19.785Z,5.13
2022-12-23T04:22:47.867Z,5.77
2022-12-23T04:25:17.511Z,5.30
2022-12-23T04:27:45.554Z,5.67
2022-12-23T04:30:14.875Z,5.63
2022-12-23T04:32:43.794Z,4.90
2022-12-23T04:35:13.292Z,5.40
2022-12-23T04:37:42.800Z,5.27
2022-12-23T04:40:11.429Z,5.23
2022-12-23T04:42:39.679Z,5.17
2022-12-23T04:45:09.161Z,4.90
2022-12-23T04:47:37.635Z,5.00
2022-12-23T04:50:06.427Z,4.67
2022-12-23T04:52:34.429Z,5.07
2022-12-23T04:55:03.839Z,5.20
2022-12-23T04:57:33.111Z,5.10
2022-12-23T05:00:01.368Z,4.67
2022-12-23T05:02:29.595Z,4.90
2022-12-23T05:04:57.616Z,4.47
2022-12-23T05:07:25.851Z,4.60
2022-12-23T05:09:53.983Z,4.60
2022-12-23T05:12:23.462Z,4.50
2022-12-23T05:14:51.580Z,4.20
2022-12-23T05:17:19.608Z,4.53
2022-12-23T05:19:47.556Z,4.00
2022-12-23T05:22:15.691Z,4.50
2022-12-23T05:24:43.690Z,4.27
2022-12-23T05:27:11.881Z,4.60
2022-12-23T05:29:41.324Z,4.40
2022-12-23T05:32:11.964Z,4.80
2022-12-23T05:34:40.173Z,4.37
2022-12-23T05:37:08.306Z,4.63
2022-12-23T05:39:36.270Z,3.70
2022-12-23T05:42:04.504Z,4.30
2022-12-23T05:44:32.635Z,4.30
2022-12-23T05:47:02.421Z,4.20
2022-12-23T05:49:30.465Z,3.70
2022-12-23T05:51:58.691Z,3.90
2022-12-23T05:54:27.093Z,4.03
2022-12-23T05:56:55.245Z,3.80
2022-12-23T05:59:27.642Z,3.93
2022-12-23T06:01:58.955Z,4.20
2022-12-23T06:04:28.761Z,3.90
2022-12-23T06:06:56.805Z,4.00
2022-12-23T06:09:25.136Z,3.87
2022-12-23T06:11:53.377Z,4.30
2022-12-23T06:14:26.844Z,3.97
2022-12-23T06:16:56.804Z,3.43
2022-12-23T06:19:25.124Z,3.70
2022-12-23T06:21:54.529Z,3.67
2022-12-23T06:24:22.564Z,3.60
2022-12-23T06:26:56.508Z,3.57
2022-12-23T06:29:25.511Z,4.00
2022-12-23T06:31:53.840Z,3.87
2022-12-23T06:34:21.974Z,3.80
2022-12-23T06:36:50.247Z,4.07
2022-12-23T06:39:20.439Z,3.63
2022-12-23T06:41:48.393Z,4.43
2022-12-23T06:44:16.364Z,4.30
2022-12-23T06:46:44.481Z,4.20
2022-12-23T06:49:13.721Z,3.97
2022-12-23T06:51:42.130Z,4.53
2022-12-23T06:54:12.070Z,4.47
2022-12-23T06:56:41.626Z,4.40
2022-12-23T06:59:09.814Z,4.70
2022-12-23T07:01:37.934Z,5.13
2022-12-23T07:04:06.657Z,4.23
2022-12-23T07:06:34.751Z,5.40
2022-12-23T07:09:02.774Z,5.37
2022-12-23T07:11:31.055Z,4.90
2022-12-23T07:14:00.597Z,5.17
2022-12-23T07:16:28.794Z,4.47
2022-12-23T07:18:56.973Z,4.83
2022-12-23T07:21:29.590Z,4.53
2022-12-23T07:23:58.212Z,4.40
2022-12-23T07:26:26.181Z,5.37
2022-12-23T07:28:54.277Z,4.50
2022-12-23T07:31:23.952Z,4.57
2022-12-23T07:33:52.249Z,4.83
2022-12-23T07:36:20.502Z,4.53
2022-12-23T07:38:50.579Z,4.23
2022-12-23T07:41:18.800Z,4.20
2022-12-23T07:43:46.896Z,4.10
2022-12-23T07:46:15.124Z,4.33
2022-12-23T07:48:44.527Z,4.17
2022-12-23T07:51:12.876Z,4.40
2022-12-23T07:53:40.935Z,4.20
2022-12-23T07:56:09.613Z,4.20
2022-12-23T07:58:37.699Z,4.23
2022-12-23T08:01:08.650Z,4.27
2022-12-23T08:03:37.780Z,4.47
2022-12-23T08:06:09.351Z,4.63
2022-12-23T08:08:37.373Z,3.90
2022-12-23T08:11:09.227Z,4.37
2022-12-23T08:13:39.695Z,4.40
2022-12-23T08:16:09.104Z,4.37
2022-12-23T08:18:39.155Z,4.50
2022-12-23T08:21:11.705Z,4.53
2022-12-23T08:23:39.832Z,4.67
2022-12-23T08:26:10.623Z,4.57
2022-12-23T08:28:39.588Z,4.50
2022-12-23T08:31:10.538Z,4.87
2022-12-23T08:33:39.717Z,5.43
2022-12-23T08:36:19.081Z,4.80
2022-12-23T08:38:50.600Z,5.17
2022-12-23T08:41:21.126Z,4.97
2022-12-23T08:43:49.149Z,4.97
2022-12-23T08:46:17.246Z,5.50
2022-12-23T08:48:49.094Z,4.80
2022-12-23T08:51:20.954Z,5.20
2022-12-23T08:53:51.575Z,5.17
2022-12-23T08:56:24.960Z,5.80
2022-12-23T08:58:54.965Z,5.67
2022-12-23T09:01:25.402Z,6.07
2022-12-23T09:03:54.605Z,6.50
2022-12-23T09:06:29.572Z,5.77
2022-12-23T09:08:59.006Z,5.23
2022-12-23T09:11:29.072Z,5.07
2022-12-23T09:13:59.531Z,5.70
2022-12-23T09:16:27.770Z,4.97
2022-12-23T09:18:55.968Z,5.33
2022-12-23T09:21:26.122Z,4.80
2022-12-23T09:23:54.246Z,4.87
2022-12-23T09:26:24.272Z,4.70
2022-12-23T09:28:53.029Z,4.60
2022-12-23T09:31:23.370Z,4.50
2022-12-23T09:33:54.076Z,4.27
2022-12-23T09:36:23.306Z,5.07
2022-12-23T09:38:57.489Z,5.20
2022-12-23T09:41:48.832Z,5.97
2022-12-23T09:44:41.817Z,5.10
2022-12-23T09:47:14.190Z,5.20
2022-12-23T09:49:48.606Z,6.30
2022-12-23T09:52:21.887Z,4.20
2022-12-23T09:54:54.677Z,4.50
2022-12-23T09:57:27.925Z,4.03
2022-12-23T10:00:08.252Z,4.47
2022-12-23T10:03:01.503Z,5.37
2022-12-23T10:05:40.750Z,7.97
2022-12-23T10:08:13.572Z,4.60
2022-12-23T10:10:46.457Z,4.63
2022-12-23T10:13:25.396Z,4.70
2022-12-23T10:15:56.187Z,4.63
2022-12-23T10:18:29.017Z,6.27
2022-12-23T10:21:04.397Z,4.63
2022-12-23T10:23:37.973Z,4.47
2022-12-23T10:26:18.891Z,4.30
2022-12-23T10:28:47.066Z,4.10
2022-12-23T10:34:18.770Z,4.43
2022-12-23T10:36:56.329Z,4.13
2022-12-23T10:39:33.473Z,4.63
2022-12-23T10:42:13.864Z,4.60
2022-12-23T10:45:05.654Z,3.60
2022-12-23T10:47:49.080Z,4.20
2022-12-23T10:50:37.144Z,4.83
2022-12-23T10:53:11.757Z,4.13
2022-12-23T10:55:40.781Z,4.23
2022-12-23T10:58:15.751Z,4.20
2022-12-23T11:00:47.350Z,4.77
2022-12-23T11:03:23.278Z,4.53
2022-12-23T11:05:53.771Z,4.13
2022-12-23T11:08:23.162Z,4.17
2022-12-23T11:10:51.695Z,3.80
2022-12-23T11:13:34.189Z,4.20
2022-12-23T11:16:17.551Z,4.20
2022-12-23T11:19:01.540Z,3.97
2022-12-23T11:21:31.225Z,5.23
2022-12-23T11:24:19.184Z,4.43
2022-12-23T11:26:50.585Z,5.00
2022-12-23T11:29:24.861Z,5.23
2022-12-23T11:31:53.352Z,6.47
2022-12-23T11:34:23.885Z,14.67
2022-12-23T11:37:00.280Z,14.53
2022-12-23T11:39:34.944Z,14.70
2022-12-23T11:42:08.173Z,8.47
2022-12-23T11:44:42.485Z,5.40
2022-12-23T11:47:26.342Z,5.00
2022-12-23T11:49:56.335Z,4.63
2022-12-23T11:52:25.761Z,5.03
2022-12-23T11:54:55.766Z,4.67
2022-12-23T11:57:32.143Z,4.87
2022-12-23T12:00:05.294Z,4.90
2022-12-23T12:02:39.266Z,4.93
2022-12-23T12:05:26.481Z,5.10
2022-12-23T12:08:01.107Z,4.37
2022-12-23T12:10:32.803Z,4.63
2022-12-23T12:13:04.281Z,4.80
2022-12-23T12:15:42.863Z,4.97
2022-12-23T12:18:15.841Z,5.03
2022-12-23T12:20:47.788Z,5.10
2022-12-23T12:23:19.911Z,4.80
2022-12-23T12:25:51.729Z,5.20
2022-12-23T12:28:23.788Z,4.93
2022-12-23T12:31:02.349Z,4.77
2022-12-23T12:33:36.925Z,4.47
2022-12-23T12:36:13.951Z,4.17
2022-12-23T12:38:47.690Z,4.20
2022-12-23T12:41:19.910Z,4.20
2022-12-23T12:43:52.830Z,4.70
2022-12-23T12:46:31.828Z,4.23
2022-12-23T12:49:06.677Z,5.07
2022-12-23T12:51:41.678Z,4.80
2022-12-23T12:54:17.847Z,4.83
2022-12-23T12:56:50.481Z,4.90
2022-12-23T12:59:20.735Z,4.97
2022-12-23T13:02:01.820Z,9.90
2022-12-23T13:04:58.014Z,5.40
2022-12-23T13:07:39.892Z,4.93
2022-12-23T13:10:17.190Z,5.20
2022-12-23T13:12:55.940Z,4.40
2022-12-23T13:15:29.712Z,6.27
2022-12-23T13:18:20.756Z,5.90
2022-12-23T13:20:57.204Z,9.97
2022-12-23T13:23:43.435Z,7.37
2022-12-23T13:26:20.634Z,5.43
2022-12-23T13:29:01.189Z,6.33
2022-12-23T13:31:38.899Z,5.87
2022-12-23T13:34:24.565Z,10.57
2022-12-23T13:37:01.615Z,7.43
2022-12-23T13:39:46.813Z,20.53
2022-12-23T13:42:23.070Z,36.13
2022-12-23T13:44:51.711Z,42.77
2022-12-23T13:47:36.531Z,17.87
2022-12-23T13:50:12.901Z,11.93
2022-12-23T13:53:00.234Z,6.80
2022-12-23T13:55:48.889Z,6.90
2022-12-23T13:58:19.509Z,7.10
2022-12-23T14:00:47.897Z,6.47
2022-12-23T14:03:23.705Z,6.70
2022-12-23T14:05:54.595Z,7.07
2022-12-23T14:08:27.538Z,6.63
2022-12-23T14:10:58.612Z,6.90
2022-12-23T14:13:29.393Z,7.53
2022-12-23T14:16:20.259Z,6.80
2022-12-23T14:19:23.274Z,6.57
2022-12-23T14:22:03.820Z,6.93
2022-12-23T14:25:12.532Z,6.27
2022-12-23T14:27:52.321Z,6.43
2022-12-23T14:30:26.835Z,5.63
2022-12-23T14:32:59.211Z,5.80
2022-12-23T14:35:48.927Z,5.47
2022-12-23T14:38:34.524Z,5.57
2022-12-23T14:41:23.725Z,5.17
2022-12-23T14:43:59.524Z,6.60
2022-12-23T14:46:55.790Z,9.93
2022-12-23T14:49:42.868Z,18.97
2022-12-23T14:52:45.103Z,10.60
2022-12-23T14:55:43.957Z,24.80
2022-12-23T14:58:47.734Z,31.77
2022-12-23T15:01:19.316Z,31.57
2022-12-23T15:03:59.089Z,10.73
2022-12-23T15:06:36.404Z,10.57
2022-12-23T15:09:06.227Z,7.00
2022-12-23T15:11:37.729Z,16.53
2022-12-23T15:14:12.231Z,20.83
2022-12-23T15:16:45.230Z,36.23
2022-12-23T15:19:23.986Z,51.03
2022-12-23T15:22:03.266Z,59.57
2022-12-23T15:24:35.888Z,46.10
2022-12-23T15:27:26.713Z,26.37
2022-12-23T15:29:55.927Z,12.33
2022-12-23T15:32:25.294Z,24.40
2022-12-23T15:34:56.681Z,13.20
2022-12-23T15:37:29.437Z,32.07
2022-12-23T15:40:06.172Z,84.50
2022-12-23T15:42:48.655Z,44.07
2022-12-23T15:45:32.248Z,43.03
2022-12-23T15:48:00.451Z,35.37
2022-12-23T15:50:29.790Z,49.93
2022-12-23T15:53:05.431Z,69.07
2022-12-23T15:55:35.939Z,37.47
2022-12-23T15:58:05.907Z,20.50
2022-12-23T16:00:42.521Z,18.37
2022-12-23T16:03:26.629Z,17.33
2022-12-23T16:05:55.072Z,13.20
2022-12-23T16:08:29.870Z,16.27
2022-12-23T16:11:06.467Z,22.27
2022-12-23T16:13:37.422Z,15.40
2022-12-23T16:16:35.449Z,13.30
2022-12-23T16:19:03.556Z,15.53
2022-12-23T16:21:34.758Z,29.43
2022-12-23T16:24:07.690Z,12.37
2022-12-23T16:26:41.542Z,10.70
2022-12-23T16:29:12.617Z,45.53
2022-12-23T16:31:48.300Z,18.17
2022-12-23T16:34:20.441Z,11.10
2022-12-23T16:36:51.152Z,13.73
2022-12-23T16:39:22.808Z,11.13
2022-12-23T16:41:51.590Z,11.43
2022-12-23T16:44:20.959Z,11.97
2022-12-23T16:46:52.095Z,12.17
2022-12-23T16:49:22.454Z,13.97
2022-12-23T16:51:54.052Z,13.80
2022-12-23T16:54:22.287Z,13.17
2022-12-23T16:56:50.483Z,17.80
2022-12-23T16:59:21.110Z,18.53
2022-12-23T17:01:50.457Z,21.57
2022-12-23T17:04:18.579Z,19.10
2022-12-23T17:06:47.574Z,16.97
2022-12-23T17:09:15.743Z,18.00
2022-12-23T17:11:46.372Z,29.23
2022-12-23T17:14:17.300Z,19.43
2022-12-23T17:16:47.880Z,31.50
2022-12-23T17:19:27.229Z,24.77
2022-12-23T17:22:01.583Z,22.13
2022-12-23T17:24:29.933Z,22.13
2022-12-23T17:26:58.128Z,20.03
2022-12-23T17:29:26.435Z,19.37
2022-12-23T17:31:56.149Z,30.30
2022-12-23T17:34:25.741Z,22.43
2022-12-23T17:36:54.440Z,19.13
2022-12-23T17:39:23.259Z,18.13
2022-12-23T17:41:51.364Z,17.67
2022-12-23T17:44:19.541Z,16.83
2022-12-23T17:46:48.176Z,17.03
2022-12-23T17:49:17.692Z,17.40
2022-12-23T17:51:45.909Z,22.63
2022-12-23T17:54:23.092Z,19.20
2022-12-23T17:56:51.580Z,21.60
2022-12-23T17:59:19.554Z,27.53
2022-12-23T18:01:47.969Z,23.60
2022-12-23T18:04:17.408Z,23.07
2022-12-23T18:06:45.469Z,22.70
2022-12-23T18:09:13.475Z,24.33
2022-12-23T18:11:44.485Z,23.70
2022-12-23T18:14:18.624Z,25.40
2022-12-23T18:16:46.767Z,28.87
2022-12-23T18:19:20.233Z,28.13
2022-12-23T18:21:48.954Z,30.30
2022-12-23T18:24:17.420Z,27.80
2022-12-23T18:26:45.642Z,24.30
2022-12-23T18:29:13.617Z,25.17
2022-12-23T18:31:50.923Z,25.50
2022-12-23T18:34:21.652Z,24.80
2022-12-23T18:36:51.691Z,39.43
2022-12-23T18:39:20.163Z,27.03
2022-12-23T18:41:48.199Z,32.70
2022-12-23T18:44:19.594Z,43.83
2022-12-23T18:46:48.275Z,27.53
2022-12-23T18:49:16.359Z,34.23
2022-12-23T18:51:45.838Z,28.33
2022-12-23T18:54:15.414Z,32.87
2022-12-23T18:56:43.870Z,30.70
2022-12-23T18:59:21.335Z,33.17
2022-12-23T19:01:56.254Z,27.20
2022-12-23T19:04:24.584Z,30.60
2022-12-23T19:06:55.415Z,31.47
2022-12-23T19:09:25.038Z,35.57
2022-12-23T19:11:54.835Z,34.67
2022-12-23T19:14:23.279Z,40.83
2022-12-23T19:16:52.587Z,34.00
2022-12-23T19:19:20.924Z,32.83
2022-12-23T19:21:48.990Z,32.03
2022-12-23T19:24:18.752Z,45.37
2022-12-23T19:26:48.311Z,46.47
2022-12-23T19:29:16.716Z,52.23
2022-12-23T19:31:44.658Z,78.33
2022-12-23T19:34:15.379Z,67.70
2022-12-23T19:36:44.329Z,61.07
2022-12-23T19:39:17.278Z,52.87
2022-12-23T19:41:47.001Z,83.17
2022-12-23T19:44:15.099Z,64.70
2022-12-23T19:46:43.358Z,39.77
2022-12-23T19:49:19.518Z,42.60
2022-12-23T19:51:48.824Z,44.30
2022-12-23T19:54:18.222Z,43.70
2022-12-23T19:56:51.122Z,65.33
2022-12-23T19:59:20.175Z,56.40
2022-12-23T20:01:48.503Z,55.20
2022-12-23T20:04:16.680Z,78.90
2022-12-23T20:06:45.074Z,71.60
2022-12-23T20:09:14.408Z,83.93
2022-12-23T20:11:44.504Z,72.00
2022-12-23T20:14:16.420Z,75.43
2022-12-23T20:16:45.194Z,74.23
2022-12-23T20:19:13.340Z,51.63
2022-12-23T20:21:41.561Z,52.63
2022-12-23T20:24:10.691Z,42.63
2022-12-23T20:26:39.466Z,37.33
2022-12-23T20:29:07.752Z,32.00
2022-12-23T20:31:38.979Z,34.70
2022-12-23T20:34:08.773Z,35.03
2022-12-23T20:36:37.820Z,38.73
2022-12-23T20:39:06.844Z,35.73
2022-12-23T20:41:35.202Z,35.83
2022-12-23T20:44:33.053Z,41.70
2022-12-23T20:46:53.432Z,35.67
2022-12-23T20:49:21.919Z,33.23
2022-12-23T20:51:50.069Z,31.77
2022-12-23T20:54:18.254Z,34.77
2022-12-23T20:56:46.281Z,33.07
2022-12-23T20:59:14.376Z,34.50
2022-12-23T21:01:42.772Z,34.37
2022-12-23T21:04:15.697Z,34.47
2022-12-23T21:06:47.099Z,33.90
2022-12-23T21:09:16.489Z,31.33
2022-12-23T21:11:46.692Z,32.57
2022-12-23T21:14:15.753Z,31.60
2022-12-23T21:16:43.938Z,39.13
2022-12-23T21:19:18.236Z,34.60
2022-12-23T21:21:46.870Z,29.93
2022-12-23T21:24:15.045Z,28.20
2022-12-23T21:26:43.774Z,27.20
2022-12-23T21:29:12.203Z,25.07
2022-12-23T21:31:43.617Z,27.93
2022-12-23T21:34:14.364Z,27.03
2022-12-23T21:36:44.001Z,21.40
2022-12-23T21:39:14.919Z,28.70
2022-12-23T21:41:43.117Z,26.87
2022-12-23T21:44:13.582Z,23.17
2022-12-23T21:46:41.974Z,18.10
2022-12-23T21:49:10.656Z,19.07
2022-12-23T21:51:41.101Z,16.60
2022-12-23T21:54:12.887Z,16.57
2022-12-23T21:56:41.857Z,15.80
2022-12-23T21:59:12.965Z,19.20
2022-12-23T22:01:41.700Z,17.30
2022-12-23T22:04:09.971Z,18.40
2022-12-23T22:06:40.185Z,19.03
2022-12-23T22:09:11.613Z,24.93
2022-12-23T22:11:39.938Z,18.70
2022-12-23T22:14:10.015Z,19.27
2022-12-23T22:16:38.222Z,18.43
2022-12-23T22:19:08.693Z,17.30
2022-12-23T22:21:39.749Z,17.90
2022-12-23T22:24:08.557Z,18.10
2022-12-23T22:26:38.100Z,19.13
2022-12-23T22:29:07.313Z,19.43
2022-12-23T22:31:39.978Z,19.90
2022-12-23T22:34:09.341Z,19.63
2022-12-23T22:36:37.717Z,18.83
2022-12-23T22:39:07.834Z,17.63
2022-12-23T22:41:37.503Z,18.63
2022-12-23T22:44:05.877Z,20.77
2022-12-23T22:46:34.352Z,20.60
2022-12-23T22:49:02.624Z,17.47
2022-12-23T22:51:32.150Z,17.87
2022-12-23T22:54:02.605Z,17.97
2022-12-23T22:56:30.691Z,20.70
2022-12-23T22:59:00.346Z,19.40
2022-12-23T23:01:30.602Z,17.10
2022-12-23T23:04:01.252Z,18.50
2022-12-23T23:06:31.092Z,18.27
2022-12-23T23:08:59.836Z,17.43
2022-12-23T23:11:29.262Z,16.70
2022-12-23T23:13:58.041Z,14.87
2022-12-23T23:16:27.947Z,16.57
2022-12-23T23:18:56.212Z,16.10
2022-12-23T23:21:24.414Z,15.67
2022-12-23T23:23:52.594Z,15.57
2022-12-23T23:26:21.568Z,15.20
2022-12-23T23:28:49.955Z,15.50
2022-12-23T23:31:41.249Z,15.13
2022-12-23T23:34:07.287Z,15.20
2022-12-23T23:36:35.461Z,14.57
2022-12-23T23:39:03.458Z,16.47
2022-12-23T23:41:31.486Z,15.07
2022-12-23T23:44:02.003Z,14.67
2022-12-23T23:46:31.779Z,15.43
2022-12-23T23:49:00.094Z,14.97
2022-12-23T23:51:29.463Z,15.10
2022-12-23T23:53:57.536Z,14.40
2022-12-23T23:56:27.296Z,14.33
2022-12-23T23:58:56.908Z,14.60
